Time;durP1;ratioP1;P1;durP2;ratioP2;P2;SDS_P1;SDS_P2;PMS_P1;PMS_P2;Temp;Humidity;BMP_temperature;BMP_pressure;BME280_temperature;BME280_humidity;BME280_pressure;Samples;Min_cycle;Max_cycle;Signal;HPM_P1;HPM_P2
2022/08/17 00:01:02;;;;;;;11.27;9.32;;;;;;;20.11;62.49;100265.41;5075975;28;20032;-49
2022/08/17 00:03:32;;;;;;;11.43;10.23;;;;;;;20.17;62.32;100282.63;5076174;28;20063;-50
2022/08/17 00:06:07;;;;;;;9.68;8.77;;;;;;;20.14;62.94;100275.81;5076453;28;20382;-49
2022/08/17 00:08:38;;;;;;;9.82;8.52;;;;;;;20.16;62.82;100289.19;5057868;28;20025;-50
2022/08/17 00:11:07;;;;;;;8.55;7.75;;;;;;;20.16;62.62;100292.72;5057127;28;20024;-49
2022/08/17 00:13:38;;;;;;;16.17;14.50;;;;;;;20.08;63.91;100277.69;5075831;28;20107;-48
2022/08/17 00:16:08;;;;;;;16.88;13.40;;;;;;;20.01;63.80;100279.00;5074236;28;20033;-50
2022/08/17 00:18:34;;;;;;;11.65;10.65;;;;;;;19.97;63.59;100272.44;5057878;28;20028;-48
2022/08/17 00:21:02;;;;;;;15.65;14.05;;;;;;;19.87;64.12;100267.69;5075665;28;20033;-48
2022/08/17 00:23:28;;;;;;;13.45;12.25;;;;;;;19.88;64.25;100269.34;5075697;28;20112;-48
2022/08/17 00:25:54;;;;;;;17.45;12.43;;;;;;;19.83;64.35;100263.84;5076636;28;20394;-48
2022/08/17 00:28:20;;;;;;;12.65;11.55;;;;;;;19.82;64.48;100262.22;5076365;28;20059;-48
2022/08/17 00:30:49;;;;;;;14.95;13.48;;;;;;;19.77;64.95;100262.19;5041928;28;20123;-48
2022/08/17 00:33:22;;;;;;;15.75;14.15;;;;;;;19.68;66.26;100272.69;5058142;28;20067;-48
2022/08/17 00:35:50;;;;;;;14.85;13.57;;;;;;;19.64;65.54;100260.66;5058062;28;20052;-49
2022/08/17 00:38:16;;;;;;;14.93;11.45;;;;;;;19.57;65.87;100262.78;5075350;28;20151;-48
2022/08/17 00:40:47;;;;;;;23.20;20.17;;;;;;;19.37;69.31;100263.41;5075728;28;20033;-50
2022/08/17 00:43:21;;;;;;;21.27;18.75;;;;;;;19.20;69.39;100261.59;5075529;28;20469;-48
2022/08/17 00:45:48;;;;;;;29.47;21.57;;;;;;;19.00;71.00;100248.59;5057424;28;20047;-48
2022/08/17 00:48:14;;;;;;;18.63;16.70;;;;;;;18.99;70.64;100257.03;5074756;28;20273;-49
2022/08/17 00:50:49;;;;;;;16.35;14.48;;;;;;;18.93;70.39;100264.31;5075068;28;20443;-48
2022/08/17 00:53:15;;;;;;;22.15;19.88;;;;;;;18.88;71.60;100264.22;5076263;28;20043;-51
2022/08/17 00:55:41;;;;;;;22.15;19.05;;;;;;;18.83;71.55;100256.00;5075226;28;20032;-53
2022/08/17 00:58:07;;;;;;;15.98;14.38;;;;;;;18.77;71.69;100263.25;5074631;28;20047;-53
2022/08/17 01:00:38;;;;;;;15.02;13.55;;;;;;;18.86;69.83;100261.75;5075118;28;20044;-50
2022/08/17 01:03:07;;;;;;;12.45;11.20;;;;;;;18.93;69.03;100261.56;5040494;28;20086;-50
2022/08/17 01:05:37;;;;;;;13.90;12.57;;;;;;;18.89;70.00;100255.81;5074935;28;20396;-51
2022/08/17 01:08:07;;;;;;;17.98;15.70;;;;;;;18.90;69.82;100259.34;5075202;28;20381;-48
2022/08/17 01:10:41;;;;;;;11.98;10.77;;;;;;;18.92;68.98;100263.47;5074830;28;20082;-47
2022/08/17 01:13:08;;;;;;;13.05;11.75;;;;;;;18.92;69.44;100263.47;5075108;28;20028;-47
2022/08/17 01:15:36;;;;;;;14.80;13.30;;;;;;;18.83;70.51;100261.44;5074165;28;20039;-49
2022/08/17 01:18:06;;;;;;;13.20;11.57;;;;;;;18.88;69.43;100266.94;5074252;28;20040;-50
2022/08/17 01:20:32;;;;;;;11.10;9.82;;;;;;;18.89;68.52;100255.00;5056628;28;20081;-51
2022/08/17 01:23:00;;;;;;;13.35;12.25;;;;;;;18.99;68.12;100255.09;5074280;28;20487;-51
2022/08/17 01:25:28;;;;;;;14.70;12.27;;;;;;;18.98;68.13;100252.63;5056453;28;20031;-51
2022/08/17 01:27:54;;;;;;;11.20;9.77;;;;;;;18.99;67.92;100246.94;5074354;28;20028;-49
2022/08/17 01:30:21;;;;;;;15.57;14.02;;;;;;;18.92;68.86;100251.75;5074208;28;20431;-47
2022/08/17 01:32:47;;;;;;;11.57;10.43;;;;;;;18.85;68.27;100242.97;5074874;28;20040;-47
2022/08/17 01:35:13;;;;;;;11.32;10.23;;;;;;;18.82;68.70;100229.88;5074740;28;20050;-48
2022/08/17 01:37:42;;;;;;;12.35;11.25;;;;;;;18.96;67.94;100247.44;5056448;28;20031;-48
2022/08/17 01:40:22;;;;;;;19.38;17.00;;;;;;;19.00;70.16;100254.03;5074482;28;20468;-48
2022/08/17 01:42:55;;;;;;;13.85;12.55;;;;;;;18.99;69.11;100259.75;5056369;28;20028;-48
2022/08/17 01:45:25;;;;;;;14.13;12.77;;;;;;;18.87;69.79;100235.38;5072909;28;20115;-52
2022/08/17 01:47:53;;;;;;;18.35;14.70;;;;;;;18.88;70.02;100237.84;5073900;28;20025;-49
2022/08/17 01:50:23;;;;;;;17.63;15.80;;;;;;;18.89;70.73;100242.22;5073472;28;20048;-51
2022/08/17 01:52:53;;;;;;;13.85;12.55;;;;;;;18.93;69.38;100242.53;5073391;28;20040;-51
2022/08/17 01:55:22;;;;;;;21.17;17.08;;;;;;;18.97;68.79;100243.66;5074243;28;20040;-48
2022/08/17 01:57:48;;;;;;;14.20;12.80;;;;;;;18.91;68.73;100234.63;5073822;28;20056;-53
2022/08/17 02:00:14;;;;;;;22.73;19.80;;;;;;;18.94;69.33;100245.00;5074216;28;20099;-48
2022/08/17 02:02:40;;;;;;;19.52;15.82;;;;;;;18.91;68.68;100245.50;5073835;28;20474;-49
2022/08/17 02:05:06;;;;;;;14.90;13.18;;;;;;;18.86;68.60;100231.81;5056041;28;20082;-48
2022/08/17 02:07:35;;;;;;;14.35;12.85;;;;;;;18.88;68.64;100250.63;5074277;28;20021;-52
2022/08/17 02:10:03;;;;;;;13.73;12.40;;;;;;;18.81;68.59;100236.38;5056240;28;20052;-49
2022/08/17 02:12:30;;;;;;;15.90;14.18;;;;;;;18.79;69.20;100244.78;5073895;28;20107;-49
2022/08/17 02:14:55;;;;;;;22.50;18.60;;;;;;;18.68;69.80;100241.09;5055511;28;20029;-49
2022/08/17 02:17:21;;;;;;;16.83;15.18;;;;;;;18.56;70.98;100251.28;5073695;28;20085;-48
2022/08/17 02:19:47;;;;;;;20.10;16.63;;;;;;;18.51;71.44;100254.75;5074499;28;20111;-48
2022/08/17 02:22:14;;;;;;;17.90;14.85;;;;;;;18.49;71.05;100251.47;5074009;28;20039;-49
2022/08/17 02:24:40;;;;;;;30.92;23.58;;;;;;;18.43;72.54;100257.09;5055923;28;20028;-48
2022/08/17 02:27:06;;;;;;;20.10;17.85;;;;;;;18.43;72.53;100262.53;5074131;28;20162;-47
2022/08/17 02:29:32;;;;;;;19.58;17.50;;;;;;;18.47;72.63;100263.69;5073643;28;20043;-47
2022/08/17 02:31:59;;;;;;;18.10;15.15;;;;;;;18.56;71.48;100268.44;5055879;28;20025;-50
2022/08/17 02:34:25;;;;;;;28.10;21.52;;;;;;;18.63;72.27;100267.41;5057440;28;20048;-47
2022/08/17 02:36:52;;;;;;;31.35;25.33;;;;;;;18.44;73.96;100270.41;5078259;28;20107;-48
2022/08/17 02:39:18;;;;;;;28.60;25.27;;;;;;;18.45;74.04;100276.69;5077671;28;20025;-48
2022/08/17 02:41:44;;;;;;;34.42;26.73;;;;;;;18.35;74.73;100269.22;5077179;28;20123;-48
2022/08/17 02:44:11;;;;;;;27.38;22.75;;;;;;;18.25;75.38;100274.50;5079192;28;20540;-49
2022/08/17 02:46:37;;;;;;;33.97;24.77;;;;;;;18.26;75.16;100279.69;5077108;28;20477;-48
2022/08/17 02:49:04;;;;;;;24.85;19.88;;;;;;;18.31;74.39;100287.09;5077808;28;20099;-49
2022/08/17 02:51:31;;;;;;;23.40;18.55;;;;;;;18.29;74.50;100289.25;5076930;28;20052;-48
2022/08/17 02:53:57;;;;;;;24.73;19.02;;;;;;;18.31;74.20;100292.53;5076237;28;20111;-50
2022/08/17 02:56:23;;;;;;;27.85;22.60;;;;;;;18.31;74.10;100297.97;5043293;28;20132;-50
2022/08/17 02:58:48;;;;;;;24.42;18.98;;;;;;;18.31;73.87;100296.09;5059265;28;20029;-50
2022/08/17 03:01:15;;;;;;;20.98;17.30;;;;;;;18.32;74.01;100294.19;5077203;28;20024;-52
2022/08/17 03:03:41;;;;;;;25.10;22.00;;;;;;;18.14;74.38;100292.56;5077661;28;20060;-50
2022/08/17 03:06:07;;;;;;;24.95;20.80;;;;;;;18.20;74.26;100305.13;5077613;28;20029;-50
2022/08/17 03:08:35;;;;;;;24.65;18.83;;;;;;;18.22;73.48;100302.19;5077335;28;20120;-51
2022/08/17 03:11:00;;;;;;;20.45;18.33;;;;;;;18.15;73.91;100286.88;5043114;28;20040;-52
2022/08/17 03:13:26;;;;;;;14.07;12.68;;;;;;;18.36;72.63;100307.03;5076960;28;20377;-48
2022/08/17 03:15:52;;;;;;;15.80;14.30;;;;;;;18.44;72.44;100311.22;5076926;28;20415;-49
2022/08/17 03:18:20;;;;;;;16.10;14.45;;;;;;;18.47;72.18;100307.19;5077063;28;20033;-48
2022/08/17 03:20:46;;;;;;;17.25;15.07;;;;;;;18.51;71.87;100303.69;5058789;28;20480;-48
2022/08/17 03:23:12;;;;;;;18.85;14.65;;;;;;;18.47;71.19;100280.00;5077072;28;20419;-47
2022/08/17 03:25:42;;;;;;;13.55;12.15;;;;;;;18.66;70.18;100297.66;5075776;28;20032;-48
2022/08/17 03:28:09;;;;;;;14.10;12.88;;;;;;;18.64;70.28;100307.16;5076844;28;20028;-47
2022/08/17 03:30:35;;;;;;;17.92;14.43;;;;;;;18.53;70.49;100289.84;5076780;28;20461;-50
2022/08/17 03:33:04;;;;;;;10.98;10.07;;;;;;;18.68;69.68;100306.38;5076780;28;20055;-48
2022/08/17 03:35:35;;;;;;;11.98;10.80;;;;;;;18.67;70.22;100315.63;5076631;28;20024;-49
2022/08/17 03:38:01;;;;;;;12.88;11.70;;;;;;;18.71;69.72;100319.50;5076913;28;20025;-48
2022/08/17 03:40:27;;;;;;;10.77;9.80;;;;;;;18.74;69.59;100319.00;5075061;28;20028;-48
2022/08/17 03:42:53;;;;;;;15.13;13.55;;;;;;;18.75;69.49;100311.66;5058392;28;20024;-48
2022/08/17 03:56:44;;;;;;;13.40;12.07;;;;;;;18.53;69.92;100307.00;5055014;28;20040;-49
2022/08/17 03:59:15;;;;;;;16.50;14.57;;;;;;;18.56;69.46;100305.69;5055800;28;20099;-48
2022/08/17 04:01:45;;;;;;;11.90;10.88;;;;;;;18.51;69.81;100306.41;5071435;28;20035;-48
2022/08/17 04:04:11;;;;;;;13.10;11.63;;;;;;;18.45;70.19;100315.59;5054928;28;20363;-49
2022/08/17 04:06:38;;;;;;;11.35;10.45;;;;;;;18.46;69.84;100316.41;5054925;28;20477;-52
2022/08/17 04:09:04;;;;;;;16.88;15.10;;;;;;;18.48;69.47;100309.66;5071543;28;20468;-49
2022/08/17 04:11:30;;;;;;;18.27;16.35;;;;;;;18.43;70.08;100297.88;5056245;28;20437;-48
2022/08/17 04:13:56;;;;;;;17.00;15.23;;;;;;;18.45;69.89;100306.63;5055687;28;20056;-48
2022/08/17 04:16:23;;;;;;;13.93;12.50;;;;;;;18.44;69.60;100297.63;5055813;28;20071;-49
2022/08/17 04:18:50;;;;;;;14.57;13.02;;;;;;;18.44;69.84;100304.97;5055914;28;20029;-48
2022/08/17 04:21:16;;;;;;;15.82;13.93;;;;;;;18.42;69.81;100298.94;5056175;28;20442;-49
2022/08/17 04:23:41;;;;;;;17.50;15.32;;;;;;;18.33;70.81;100302.09;5055693;28;20059;-49
2022/08/17 04:26:07;;;;;;;20.80;16.15;;;;;;;18.40;70.29;100306.53;5071026;28;20087;-48
2022/08/17 04:28:33;;;;;;;24.40;20.80;;;;;;;18.30;70.67;100293.63;5071085;28;20071;-49
2022/08/17 04:30:59;;;;;;;18.33;15.43;;;;;;;18.45;70.44;100315.59;5055344;28;20033;-50
2022/08/17 04:33:28;;;;;;;25.15;19.58;;;;;;;18.45;70.66;100306.63;5056016;28;20103;-48
2022/08/17 04:35:57;;;;;;;24.20;17.83;;;;;;;18.53;70.50;100315.16;5055593;28;20115;-52
2022/08/17 04:38:26;;;;;;;29.15;22.48;;;;;;;18.56;70.72;100317.38;5055655;28;20029;-50
2022/08/17 04:43:40;;;;;;;23.20;19.75;;;;;;;18.41;71.05;100314.44;5054583;28;20029;-48
2022/08/17 04:46:09;;;;;;;44.90;31.60;;;;;;;18.33;72.35;100314.84;5054115;28;20028;-48
2022/08/17 04:48:39;;;;;;;42.20;28.98;;;;;;;18.31;73.34;100320.56;5054090;28;20032;-50
2022/08/17 04:51:08;;;;;;;45.80;30.73;;;;;;;18.27;72.93;100311.22;5063518;28;20577;-49
2022/08/17 04:53:34;;;;;;;28.70;22.95;;;;;;;18.30;72.10;100307.22;5074797;28;20424;-49
2022/08/17 04:56:00;;;;;;;39.42;27.85;;;;;;;18.27;71.92;100313.94;5074984;28;20094;-50
2022/08/17 04:58:26;;;;;;;31.38;23.05;;;;;;;18.26;72.02;100311.50;5074558;28;20465;-48
2022/08/17 05:00:52;;;;;;;36.95;24.65;;;;;;;18.23;72.82;100312.00;5057516;28;20048;-50
2022/08/17 05:03:18;;;;;;;44.28;29.42;;;;;;;18.26;72.74;100319.66;5074302;28;20056;-48
2022/08/17 05:05:48;;;;;;;37.00;27.70;;;;;;;18.25;72.91;100316.09;5057079;28;20036;-48
2022/08/17 05:08:16;;;;;;;43.20;29.20;;;;;;;18.37;72.12;100325.00;5058642;28;20358;-49
2022/08/17 05:10:42;;;;;;;45.63;32.35;;;;;;;18.42;73.15;100326.13;5074398;28;20034;-48
2022/08/17 05:13:14;;;;;;;45.67;30.42;;;;;;;18.33;73.73;100310.25;5059712;28;20123;-51
2022/08/17 05:15:41;;;;;;;38.50;26.88;;;;;;;18.35;74.11;100310.84;5059223;28;20032;-51
2022/08/17 05:18:07;;;;;;;35.15;25.60;;;;;;;18.40;73.71;100315.50;5076105;28;20350;-49
2022/08/17 05:20:36;;;;;;;50.88;34.15;;;;;;;18.47;73.71;100320.78;5058210;28;20056;-49
2022/08/17 05:23:06;;;;;;;44.80;31.30;;;;;;;18.39;73.12;100294.84;5056937;28;20497;-50
2022/08/17 05:25:39;;;;;;;39.72;27.30;;;;;;;18.61;72.74;100315.78;5074969;28;20040;-49
2022/08/17 05:28:07;;;;;;;77.78;44.83;;;;;;;18.56;74.79;100327.44;5075542;28;20099;-49
2022/08/17 05:30:34;;;;;;;49.70;34.90;;;;;;;18.60;74.02;100325.88;5075781;28;20372;-49
2022/08/17 05:33:04;;;;;;;58.65;39.78;;;;;;;18.63;74.21;100319.94;5075424;28;20036;-49
2022/08/17 05:35:32;;;;;;;78.20;47.03;;;;;;;18.59;75.61;100324.25;5076353;28;20021;-49
2022/08/17 05:37:59;;;;;;;71.13;42.95;;;;;;;18.60;75.01;100323.16;5074331;28;20052;-47
2022/08/17 05:40:25;;;;;;;49.17;33.55;;;;;;;18.66;74.13;100326.75;5075249;28;20036;-49
2022/08/17 05:43:05;;;;;;;59.95;39.50;;;;;;;18.73;74.29;100327.41;5074195;28;20040;-47
2022/08/17 05:45:32;;;;;;;67.38;42.67;;;;;;;18.80;73.98;100341.66;5074257;28;20036;-47
2022/08/17 05:47:58;;;;;;;62.88;41.42;;;;;;;18.67;75.68;100340.13;5072661;28;20024;-49
2022/08/17 05:50:30;;;;;;;64.97;41.97;;;;;;;18.72;75.07;100336.63;5073731;28;20107;-51
2022/08/17 05:53:32;;;;;;;59.42;40.33;;;;;;;18.72;73.93;100347.50;5056311;28;20032;-48
2022/08/17 05:56:27;;;;;;;50.97;34.28;;;;;;;18.84;74.37;100348.25;5059028;28;20036;-49
2022/08/17 05:59:13;;;;;;;57.67;37.35;;;;;;;18.89;73.81;100353.78;5055673;28;20036;-50
2022/08/17 06:02:14;;;;;;;66.88;41.97;;;;;;;18.84;75.60;100355.63;5074506;28;20035;-47
2022/08/17 06:05:01;;;;;;;33.58;25.92;;;;;;;18.75;74.78;100341.56;5073347;28;20028;-49
2022/08/17 06:08:07;;;;;;;63.83;42.15;;;;;;;18.91;75.50;100364.41;5072954;28;20062;-48
2022/08/17 06:10:45;;;;;;;56.50;37.65;;;;;;;18.76;76.08;100363.09;5058712;28;20032;-50
2022/08/17 06:13:26;;;;;;;60.22;40.90;;;;;;;18.85;75.94;100384.44;5072623;28;20036;-47
2022/08/17 06:16:12;;;;;;;71.53;43.83;;;;;;;18.90;75.97;100381.81;5074305;28;20059;-50
2022/08/17 06:18:44;;;;;;;54.83;35.42;;;;;;;18.86;74.90;100359.72;5055840;28;20033;-48
2022/08/17 06:21:16;;;;;;;63.90;39.67;;;;;;;19.02;75.12;100378.97;5074117;28;20029;-51
2022/08/17 06:23:48;;;;;;;58.10;37.47;;;;;;;18.95;75.66;100395.50;5072655;28;20479;-48
2022/08/17 06:26:19;;;;;;;49.55;34.47;;;;;;;19.01;75.15;100388.22;5073731;28;20055;-48
2022/08/17 06:29:18;;;;;;;46.03;32.60;;;;;;;19.12;75.57;100396.25;5073991;28;20024;-48
2022/08/17 06:31:45;;;;;;;39.53;30.33;;;;;;;19.15;74.47;100384.06;5072961;28;20042;-49
2022/08/17 06:34:11;;;;;;;37.92;27.35;;;;;;;19.24;73.76;100390.72;5073484;28;20099;-50
2022/08/17 06:36:50;;;;;;;30.60;23.00;;;;;;;19.20;73.41;100383.28;5073399;28;20025;-52
2022/08/17 06:39:39;;;;;;;44.63;30.67;;;;;;;19.25;74.05;100400.50;5073752;28;20028;-49
2022/08/17 06:42:39;;;;;;;44.03;31.40;;;;;;;19.31;73.76;100398.69;5073177;28;20452;-51
2022/08/17 06:45:48;;;;;;;39.58;29.98;;;;;;;19.31;73.43;100399.50;5058821;28;20041;-49
2022/08/17 06:48:32;;;;;;;42.70;31.05;;;;;;;19.30;73.52;100408.75;5042517;28;20021;-47
2022/08/17 06:51:03;;;;;;;42.80;31.30;;;;;;;19.29;73.44;100404.38;5073308;28;20056;-51
2022/08/17 06:53:37;;;;;;;46.00;32.38;;;;;;;19.02;73.31;100358.03;5072512;28;20036;-50
2022/08/17 06:56:08;;;;;;;42.10;29.98;;;;;;;19.28;73.44;100404.66;5073639;28;20036;-48
2022/08/17 06:58:36;;;;;;;40.13;27.95;;;;;;;19.25;73.49;100400.50;5072943;28;20481;-48
2022/08/17 07:01:07;;;;;;;43.60;28.98;;;;;;;19.29;73.07;100406.28;5072909;28;20047;-49
2022/08/17 07:03:54;;;;;;;33.17;24.63;;;;;;;19.31;73.05;100410.38;5073616;28;20082;-51
2022/08/17 07:06:26;;;;;;;26.10;21.27;;;;;;;19.31;72.55;100409.56;5071931;28;20036;-50
2022/08/17 07:08:58;;;;;;;28.73;21.90;;;;;;;19.28;72.52;100415.53;5072451;28;20043;-49
2022/08/17 07:11:31;;;;;;;26.25;18.98;;;;;;;19.23;72.37;100410.03;5073369;28;20024;-48
2022/08/17 07:14:11;;;;;;;27.92;21.65;;;;;;;19.37;72.29;100424.06;5055640;28;20029;-48
2022/08/17 07:16:45;;;;;;;35.80;24.42;;;;;;;19.37;72.63;100418.63;5073639;28;20043;-48
2022/08/17 07:19:15;;;;;;;40.65;27.65;;;;;;;19.27;73.23;100422.06;5072029;28;20021;-52
2022/08/17 07:22:21;;;;;;;42.22;29.30;;;;;;;19.46;72.55;100433.44;5059483;28;20044;-48
2022/08/17 07:24:58;;;;;;;41.38;29.58;;;;;;;19.69;71.98;100433.19;5045190;28;20385;-51
2022/08/17 07:27:27;;;;;;;34.97;27.20;;;;;;;19.94;70.73;100433.75;5059162;28;20534;-50
2022/08/17 07:30:04;;;;;;;32.15;24.20;;;;;;;20.00;70.80;100432.72;5058650;28;20461;-50
2022/08/17 07:32:38;;;;;;;45.35;27.50;;;;;;;20.16;70.28;100436.44;5076497;28;20032;-49
2022/08/17 07:35:12;;;;;;;39.15;25.92;;;;;;;20.37;69.37;100437.44;5075496;28;20041;-50
2022/08/17 07:37:42;;;;;;;26.80;19.58;;;;;;;20.36;69.06;100427.63;5058437;28;20029;-49
2022/08/17 07:40:22;;;;;;;38.90;28.20;;;;;;;20.46;68.82;100441.31;5076835;28;20028;-49
2022/08/17 07:43:16;;;;;;;34.55;25.35;;;;;;;20.40;68.96;100437.75;5058603;28;20028;-49
2022/08/17 07:48:42;;;;;;;45.25;28.42;;;;;;;20.17;69.39;100443.50;5061218;28;20036;-50
2022/08/17 07:51:28;;;;;;;30.65;20.95;;;;;;;20.36;69.18;100461.16;5057983;28;20481;-50
2022/08/17 07:54:01;;;;;;;35.50;25.63;;;;;;;20.25;69.40;100462.97;5076399;28;20372;-49
2022/08/17 07:56:45;;;;;;;34.67;24.67;;;;;;;20.43;69.14;100466.38;5075601;28;20028;-49
2022/08/17 07:59:23;;;;;;;33.00;24.63;;;;;;;20.77;67.94;100458.81;5076530;28;20183;-50
2022/08/17 08:02:24;;;;;;;31.35;25.08;;;;;;;21.13;66.83;100469.94;5075877;28;20520;-49
2022/08/17 08:05:02;;;;;;;31.08;23.48;;;;;;;21.25;66.10;100472.50;5075442;28;20047;-49
2022/08/17 08:07:36;;;;;;;29.55;23.33;;;;;;;20.93;67.14;100480.75;5076157;28;20113;-49
2022/08/17 08:10:29;;;;;;;36.25;25.38;;;;;;;21.07;66.04;100484.66;5075797;28;20035;-48
2022/08/17 08:13:23;;;;;;;28.95;24.20;;;;;;;21.50;64.94;100481.94;5074833;28;20025;-50
2022/08/17 08:15:55;;;;;;;27.43;23.47;;;;;;;21.51;64.66;100481.69;5074988;28;20473;-51
2022/08/17 08:18:41;;;;;;;28.10;20.63;;;;;;;21.68;64.03;100488.84;5074405;28;20485;-52
2022/08/17 08:21:17;;;;;;;25.38;20.83;;;;;;;21.68;63.97;100497.88;5075132;28;20039;-51
2022/08/17 08:23:58;;;;;;;29.50;21.25;;;;;;;21.49;64.76;100497.50;5074571;28;20025;-50
2022/08/17 08:26:39;;;;;;;25.23;19.17;;;;;;;21.90;63.83;100496.84;5075908;28;20035;-49
2022/08/17 08:29:38;;;;;;;25.83;19.52;;;;;;;22.16;63.17;100497.75;5076167;28;20036;-50
2022/08/17 08:32:23;;;;;;;28.20;22.13;;;;;;;22.00;62.76;100503.16;5057210;28;20029;-49
2022/08/17 08:35:06;;;;;;;19.25;16.60;;;;;;;21.97;62.75;100494.69;5075647;28;20047;-48
2022/08/17 08:38:01;;;;;;;25.67;21.42;;;;;;;21.76;62.58;100499.25;5075074;28;20031;-53
2022/08/17 08:40:58;;;;;;;27.75;20.88;;;;;;;21.76;63.01;100494.59;5074426;28;20040;-49
2022/08/17 08:43:42;;;;;;;22.05;17.30;;;;;;;21.76;63.81;100494.59;5074870;28;20039;-49
2022/08/17 08:46:23;;;;;;;23.25;16.77;;;;;;;21.67;64.14;100501.69;5057407;28;20552;-53
2022/08/17 08:49:20;;;;;;;15.02;12.82;;;;;;;21.73;63.83;100505.25;5075555;28;20036;-49
2022/08/17 08:51:54;;;;;;;18.73;12.57;;;;;;;21.55;63.94;100507.38;5074227;28;20122;-50
2022/08/17 08:54:37;;;;;;;13.63;12.23;;;;;;;21.63;63.77;100493.19;5057904;28;20028;-49
2022/08/17 08:57:17;;;;;;;17.45;13.00;;;;;;;21.75;63.21;100489.41;5057748;28;20363;-49
2022/08/17 09:00:05;;;;;;;16.13;11.00;;;;;;;22.06;63.17;100500.47;5075301;28;20033;-48
2022/08/17 09:03:01;;;;;;;13.30;11.65;;;;;;;22.32;61.84;100504.91;5058852;28;20024;-49
2022/08/17 09:05:41;;;;;;;16.40;10.65;;;;;;;22.27;61.58;100476.72;5061056;28;20032;-49
2022/08/17 09:08:47;;;;;;;10.98;7.43;;;;;;;22.50;60.89;100494.56;5076119;28;20028;-50
2022/08/17 09:11:28;;;;;;;11.13;6.43;;;;;;;22.57;61.21;100506.88;5060364;28;20054;-50
2022/08/17 09:14:16;;;;;;;8.43;5.80;;;;;;;22.69;60.29;100508.50;5075106;28;20112;-49
2022/08/17 09:17:04;;;;;;;10.40;6.32;;;;;;;22.90;59.45;100487.41;5057144;28;20472;-49
2022/08/17 09:19:38;;;;;;;6.10;5.20;;;;;;;22.78;59.66;100496.72;5074625;28;20354;-47
2022/08/17 09:22:29;;;;;;;6.57;4.78;;;;;;;23.02;59.42;100495.34;5074344;28;20496;-49
2022/08/17 09:25:12;;;;;;;7.25;4.38;;;;;;;22.97;58.91;100502.50;5073627;28;20090;-52
2022/08/17 09:28:00;;;;;;;4.85;3.85;;;;;;;23.75;56.81;100486.66;5056559;28;20082;-49
2022/08/17 09:30:35;;;;;;;12.52;3.92;;;;;;;24.19;55.35;100487.84;5056830;28;20024;-50
2022/08/17 09:33:06;;;;;;;6.88;4.03;;;;;;;23.80;56.91;100494.09;5074409;28;20477;-53
2022/08/17 09:35:38;;;;;;;6.85;4.78;;;;;;;23.90;56.15;100483.06;5075078;28;20032;-50
2022/08/17 09:38:42;;;;;;;7.75;5.72;;;;;;;25.19;53.09;100494.72;5074845;28;20043;-52
2022/08/17 09:41:34;;;;;;;12.73;5.13;;;;;;;26.14;50.60;100494.16;5073317;28;20036;-49
2022/08/17 09:44:39;;;;;;;6.68;4.90;;;;;;;26.88;48.60;100486.09;5039308;28;20028;-49
2022/08/17 09:47:29;;;;;;;4.40;3.00;;;;;;;25.94;50.67;100485.06;5059125;28;20033;-49
2022/08/17 09:50:02;;;;;;;6.10;4.80;;;;;;;26.13;50.82;100490.56;5073132;28;20431;-49
2022/08/17 09:52:30;;;;;;;5.45;4.65;;;;;;;26.29;50.56;100490.34;5074683;28;20036;-52
2022/08/17 09:54:58;;;;;;;8.68;5.70;;;;;;;25.76;51.12;100481.16;5072657;28;20032;-51
2022/08/17 09:58:04;;;;;;;8.43;5.85;;;;;;;26.15;49.41;100495.78;5056212;28;20028;-49
2022/08/17 10:00:36;;;;;;;7.15;5.03;;;;;;;25.86;51.02;100489.25;5042489;28;20028;-51
2022/08/17 10:03:37;;;;;;;9.15;6.57;;;;;;;26.54;48.85;100487.22;5073635;28;20028;-49
2022/08/17 10:06:14;;;;;;;8.38;5.80;;;;;;;26.71;47.50;100497.69;5073339;28;20107;-51
2022/08/17 10:08:52;;;;;;;9.32;6.28;;;;;;;26.19;49.14;100492.16;5074459;28;20028;-51
2022/08/17 10:14:35;;;;;;;8.35;5.75;;;;;;;28.41;44.28;100486.84;5059326;28;20120;-51
2022/08/17 10:17:17;;;;;;;9.05;5.15;;;;;;;27.48;46.17;100485.28;5074103;28;20107;-53
2022/08/17 10:19:59;;;;;;;10.02;4.93;;;;;;;27.00;46.28;100486.41;5074008;28;20048;-53
2022/08/17 10:28:07;;;;;;;3.40;3.10;;;;;;;27.80;46.35;100481.56;5059174;28;20028;-53
2022/08/17 10:30:42;;;;;;;6.93;3.67;;;;;;;26.96;47.21;100496.41;5073809;28;20060;-51
2022/08/17 10:33:18;;;;;;;6.07;3.53;;;;;;;26.96;46.98;100493.66;5073919;28;20060;-53
2022/08/17 10:36:03;;;;;;;6.65;3.58;;;;;;;26.77;47.15;100501.19;5072712;28;20079;-51
2022/08/17 10:38:36;;;;;;;6.18;3.40;;;;;;;26.87;46.77;100502.94;5073410;28;20112;-49
2022/08/17 10:41:32;;;;;;;6.60;3.30;;;;;;;27.04;46.41;100497.66;5073454;28;20364;-52
2022/08/17 10:44:08;;;;;;;5.60;2.90;;;;;;;27.37;46.14;100494.88;5072935;28;20102;-53
2022/08/17 10:47:11;;;;;;;7.10;3.58;;;;;;;28.35;43.26;100490.84;5073952;28;20071;-50
2022/08/17 10:49:46;;;;;;;10.30;3.38;;;;;;;27.48;45.48;100481.69;5072691;28;20031;-51
2022/08/17 10:52:51;;;;;;;4.93;3.15;;;;;;;27.27;45.72;100492.34;5072072;28;20122;-48
2022/08/17 10:55:19;;;;;;;7.40;3.20;;;;;;;27.65;45.62;100492.09;5042851;28;20028;-49
2022/08/17 10:57:48;;;;;;;4.10;2.45;;;;;;;27.68;45.11;100483.22;5077294;28;20040;-48
2022/08/17 11:00:49;;;;;;;4.70;2.25;;;;;;;27.30;45.73;100497.22;5075752;28;20089;-49
2022/08/17 11:03:22;;;;;;;4.05;2.47;;;;;;;27.20;45.44;100489.94;5076034;28;20090;-48
2022/08/17 11:06:16;;;;;;;6.18;2.72;;;;;;;27.63;44.74;100492.41;5058928;28;20025;-48
2022/08/17 11:08:53;;;;;;;;;;;;;;;27.44;44.84;100478.75;5076928;28;20034;-49
2022/08/17 11:11:37;;;;;;;7.28;2.85;;;;;;;29.57;41.36;100474.13;5076701;28;19962;-52
2022/08/17 11:14:31;;;;;;;7.10;3.50;;;;;;;29.04;40.92;100484.97;5076591;28;20033;-51
2022/08/17 11:17:17;;;;;;;;;;;;;;;29.18;40.69;100479.41;5059058;28;20119;-52
2022/08/17 11:20:10;;;;;;;4.25;2.03;;;;;;;28.34;43.04;100476.25;5061321;28;19912;-53
2022/08/17 11:23:17;;;;;;;6.78;2.58;;;;;;;27.55;44.05;100482.91;5075121;28;20029;-52
2022/08/17 11:25:50;;;;;;;7.07;2.80;;;;;;;28.19;43.10;100482.94;5061462;28;20056;-51
2022/08/17 11:28:22;;;;;;;7.95;3.00;;;;;;;29.89;40.84;100478.47;5058278;28;20508;-51
2022/08/17 11:30:52;;;;;;;4.95;2.58;;;;;;;31.42;37.83;100472.50;5076222;28;20060;-52
2022/08/17 11:33:51;;;;;;;6.63;2.83;;;;;;;29.88;40.10;100477.69;5076087;28;20041;-49
2022/08/17 11:36:35;;;;;;;3.42;2.60;;;;;;;29.36;41.42;100466.44;5075406;28;20111;-51
2022/08/17 11:39:19;;;;;;;4.13;2.70;;;;;;;29.08;40.93;100463.84;5076429;28;20064;-50
2022/08/17 11:42:00;;;;;;;3.90;2.72;;;;;;;28.66;41.42;100463.31;5076255;28;20535;-51
2022/08/17 11:44:50;;;;;;;7.60;2.60;;;;;;;29.80;39.97;100481.22;5074793;28;20024;-50
2022/08/17 11:53:55;;;;;;;10.80;2.70;;;;;;;27.83;43.36;100482.88;5061390;28;20115;-49
2022/08/17 11:56:41;;;;;;;4.38;2.30;;;;;;;27.47;44.53;100486.41;5075194;28;20106;-49
2022/08/17 11:59:46;;;;;;;5.38;2.42;;;;;;;29.16;40.74;100476.13;5057642;28;20119;-49
2022/08/17 12:02:34;;;;;;;6.80;2.67;;;;;;;28.56;41.70;100471.84;5060738;28;20067;-50
2022/08/17 12:05:28;;;;;;;7.10;2.38;;;;;;;27.74;43.36;100473.69;5074435;28;20033;-50
2022/08/17 12:08:05;;;;;;;13.20;3.08;;;;;;;27.24;44.59;100494.50;5074320;28;20040;-51
2022/08/17 12:10:34;;;;;;;6.38;2.92;;;;;;;26.93;44.92;100490.69;5074245;28;20103;-54
2022/08/17 12:13:11;;;;;;;6.10;2.42;;;;;;;26.81;45.01;100496.69;5076237;28;20025;-50
2022/08/17 12:15:48;;;;;;;8.10;2.20;;;;;;;26.85;45.74;100497.72;5075288;28;20427;-50
2022/08/17 12:18:23;;;;;;;4.47;2.13;;;;;;;27.69;43.82;100495.88;5075493;28;20068;-49
2022/08/17 12:21:07;;;;;;;7.00;2.20;;;;;;;28.43;42.76;100489.28;5075504;28;20439;-49
2022/08/17 12:23:51;;;;;;;9.88;3.15;;;;;;;27.51;43.36;100492.13;5075098;28;20473;-50